Souris, North Dakota
Current Conditions -  °F | °C
As of 8:58 PM on Friday 21 Nov 2014 (Local Time) from KMIB Reporting Station
Clear Clear  
Wind Chill: 28°   Ceiling: Unl
Heat Index: 35°   Visibility: 10mi
Dew Point: 30°   Wind: 10mph
Humidity: 81%   Direction: 250°WSW
Pressure: 29.6"   Gusts: NA
Location:  48.91°N, 100.68°W
Report Text: KMIB 220258Z AUTO 25009KT 10SM CLR 02/M01 A2960 RMK AO2 SLP046 T00191010 50001
Loading
Personal Weather Stations






























Interactive Weather Map New forecast layout! Learn more

10-Day Weather Forecast

Advertisements
Track Severe Weather on mobile